<?xml version='1.0' encoding='UTF-8'?><gpx version="1.1" creator="JPX - https://github.com/jenetics/jpx" xmlns="http://www.topografix.com/GPX/1/1"><trk><trkseg><trkpt lat="44.093372111538436" lon="9.904264506221987"><ele>227.99999999999997</ele><time>2026-04-12T15:41:14Z</time></trkpt><trkpt lat="44.093305922849964" lon="9.904216701504767"><ele>226.0</ele><time>2026-04-12T15:41:19Z</time></trkpt><trkpt lat="44.0932342952828" lon="9.904197724025561"><ele>224.0</ele><time>2026-04-12T15:41:23Z</time></trkpt><trkpt lat="44.09315576481886" lon="9.904203161445558"><ele>222.0</ele><time>2026-04-12T15:41:27Z</time></trkpt><trkpt lat="44.093086240346885" lon="9.904216342474674"><ele>220.0</ele><time>2026-04-12T15:41:31Z</time></trkpt><trkpt lat="44.09301994306865" lon="9.904258854966265"><ele>218.0</ele><time>2026-04-12T15:41:35Z</time></trkpt><trkpt lat="44.092959545804035" lon="9.904326461645791"><ele>216.0</ele><time>2026-04-12T15:41:42.999Z</time></trkpt><trkpt lat="44.09290967103984" lon="9.904395740001279"><ele>212.0</ele><time>2026-04-12T15:41:45.999Z</time></trkpt><trkpt lat="44.09287333812879" lon="9.904514138294592"><ele>208.0</ele><time>2026-04-12T15:41:48.999Z</time></trkpt><trkpt lat="44.09286072038777" lon="9.904614272985095"><ele>204.0</ele><time>2026-04-12T15:41:50.999Z</time></trkpt><trkpt lat="44.09286135196003" lon="9.904733844459233"><ele>200.0</ele><time>2026-04-12T15:41:52.999Z</time></trkpt><trkpt lat="44.09285465539375" lon="9.904844198977987"><ele>196.0</ele><time>2026-04-12T15:41:54.999Z</time></trkpt><trkpt lat="44.092837951098346" lon="9.904939153353348"><ele>192.0</ele><time>2026-04-12T15:41:56.999Z</time></trkpt><trkpt lat="44.092803585598595" lon="9.905037026444095"><ele>193.5</ele><time>2026-04-12T15:41:58.999Z</time></trkpt><trkpt lat="44.092779443627734" lon="9.905135250483106"><ele>195.0</ele><time>2026-04-12T15:42:02.999Z</time></trkpt><trkpt lat="44.092735337407206" lon="9.905197927935557"><ele>196.5</ele><time>2026-04-12T15:42:05.999Z</time></trkpt><trkpt lat="44.09270324540498" lon="9.905318065338658"><ele>198.0</ele><time>2026-04-12T15:42:08.999Z</time></trkpt><trkpt lat="44.092671684594066" lon="9.905442999027391"><ele>199.5</ele><time>2026-04-12T15:42:11.999Z</time></trkpt><trkpt lat="44.092648560547346" lon="9.905544728879187"><ele>201.0</ele><time>2026-04-12T15:42:13.999Z</time></trkpt><trkpt lat="44.09264410048724" lon="9.905673644256519"><ele>201.0</ele><time>2026-04-12T15:42:15.999Z</time></trkpt><trkpt lat="44.09261923791719" lon="9.905799164389919"><ele>201.0</ele><time>2026-04-12T15:42:17.999Z</time></trkpt><trkpt lat="44.09258269541873" lon="9.905946734176702"><ele>201.0</ele><time>2026-04-12T15:42:19.999Z</time></trkpt><trkpt lat="44.09251149501265" lon="9.906092305560216"><ele>201.0</ele><time>2026-04-12T15:42:21.999Z</time></trkpt><trkpt lat="44.09246080207466" lon="9.906162062296284"><ele>201.0</ele><time>2026-04-12T15:42:22.999Z</time></trkpt><trkpt lat="44.092406290934115" lon="9.906215341848556"><ele>199.16666666666666</ele><time>2026-04-12T15:42:23.999Z</time></trkpt><trkpt lat="44.09233566046194" lon="9.90623804212941"><ele>197.33333333333334</ele><time>2026-04-12T15:42:24.999Z</time></trkpt><trkpt lat="44.09226972949245" lon="9.906282034353374"><ele>195.5</ele><time>2026-04-12T15:42:25.999Z</time></trkpt><trkpt lat="44.09217275834082" lon="9.90636290819822"><ele>193.66666666666669</ele><time>2026-04-12T15:42:27.999Z</time></trkpt><trkpt lat="44.0920669435982" lon="9.906395273075487"><ele>191.83333333333334</ele><time>2026-04-12T15:42:29.999Z</time></trkpt><trkpt lat="44.092128448797574" lon="9.906362377432648"><ele>190.0</ele><time>2026-04-12T15:43:00.998Z</time></trkpt><trkpt lat="44.09204452735403" lon="9.906383119329712"><ele>190.0</ele><time>2026-04-12T15:44:21.999Z</time></trkpt><trkpt lat="44.091965610671295" lon="9.906397216909607"><ele>190.0</ele><time>2026-04-12T15:44:24.999Z</time></trkpt><trkpt lat="44.09187249139274" lon="9.906428109846336"><ele>190.0</ele><time>2026-04-12T15:44:27.999Z</time></trkpt><trkpt lat="44.091805135812145" lon="9.90643627187042"><ele>190.0</ele><time>2026-04-12T15:44:29.999Z</time></trkpt><trkpt lat="44.091737160438555" lon="9.906456386434211"><ele>190.0</ele><time>2026-04-12T15:44:34.999Z</time></trkpt><trkpt lat="44.09167714496713" lon="9.90650773282088"><ele>190.0</ele><time>2026-04-12T15:44:39.999Z</time></trkpt><trkpt lat="44.09160232916412" lon="9.906548581672924"><ele>188.0</ele><time>2026-04-12T15:44:42.999Z</time></trkpt><trkpt lat="44.09154487099921" lon="9.906585732172745"><ele>186.0</ele><time>2026-04-12T15:44:45.999Z</time></trkpt><trkpt lat="44.0914728948457" lon="9.906639478794686"><ele>184.0</ele><time>2026-04-12T15:47:37Z</time></trkpt><trkpt lat="44.09141601253666" lon="9.9066776729265"><ele>182.0</ele><time>2026-04-12T15:47:41Z</time></trkpt><trkpt lat="44.09137747651606" lon="9.906769370320278"><ele>180.0</ele><time>2026-04-12T15:47:45Z</time></trkpt><trkpt lat="44.09134677882029" lon="9.906894993087139"><ele>178.0</ele><time>2026-04-12T15:47:47Z</time></trkpt><trkpt lat="44.09132122394427" lon="9.907017628331927"><ele>177.14285714285714</ele><time>2026-04-12T15:47:49Z</time></trkpt><trkpt lat="44.09130135242151" lon="9.907104070485529"><ele>176.28571428571428</ele><time>2026-04-12T15:47:51Z</time></trkpt><trkpt lat="44.09128766953773" lon="9.907211397103223"><ele>175.42857142857144</ele><time>2026-04-12T15:47:56Z</time></trkpt><trkpt lat="44.09124430436091" lon="9.907277100364551"><ele>174.57142857142856</ele><time>2026-04-12T15:47:59Z</time></trkpt><trkpt lat="44.09118133447308" lon="9.907307352250054"><ele>173.71428571428572</ele><time>2026-04-12T15:48:04Z</time></trkpt><trkpt lat="44.0911236043576" lon="9.907359459551888"><ele>172.85714285714286</ele><time>2026-04-12T15:48:11Z</time></trkpt><trkpt lat="44.091073441877114" lon="9.907445560132766"><ele>172.0</ele><time>2026-04-12T15:48:16Z</time></trkpt><trkpt lat="44.091009014980806" lon="9.907416471071016"><ele>172.0</ele><time>2026-04-12T15:48:20.999Z</time></trkpt><trkpt lat="44.090942239232376" lon="9.907363204073244"><ele>172.0</ele><time>2026-04-12T15:48:26.999Z</time></trkpt><trkpt lat="44.09086716078808" lon="9.907329155436937"><ele>172.0</ele><time>2026-04-12T15:48:31.999Z</time></trkpt><trkpt lat="44.09080708749987" lon="9.907297542371099"><ele>172.0</ele><time>2026-04-12T15:48:38.999Z</time></trkpt><trkpt lat="44.09072032895685" lon="9.907293987490265"><ele>172.0</ele><time>2026-04-12T15:48:41.999Z</time></trkpt><trkpt lat="44.090652086193145" lon="9.90730791072608"><ele>172.0</ele><time>2026-04-12T15:48:43.999Z</time></trkpt><trkpt lat="44.0905662879374" lon="9.907309120461653"><ele>171.5</ele><time>2026-04-12T15:48:46.999Z</time></trkpt><trkpt lat="44.09049132228131" lon="9.907322418065093"><ele>171.0</ele><time>2026-04-12T15:48:48.999Z</time></trkpt><trkpt lat="44.09042496402945" lon="9.907339784564602"><ele>170.5</ele><time>2026-04-12T15:48:50.999Z</time></trkpt><trkpt lat="44.09035675042588" lon="9.90736297820914"><ele>170.0</ele><time>2026-04-12T15:48:53.999Z</time></trkpt><trkpt lat="44.09027669310146" lon="9.907402040870776"><ele>169.5</ele><time>2026-04-12T15:48:56.999Z</time></trkpt><trkpt lat="44.09020821400219" lon="9.90745483701363"><ele>169.0</ele><time>2026-04-12T15:48:59.999Z</time></trkpt><trkpt lat="44.09013750128586" lon="9.907518489465096"><ele>169.0</ele><time>2026-04-12T15:49:20Z</time></trkpt><trkpt lat="44.09007134456643" lon="9.907576623578903"><ele>169.0</ele><time>2026-04-12T15:50:10Z</time></trkpt><trkpt lat="44.09001632309419" lon="9.907660229003252"><ele>169.0</ele><time>2026-04-12T15:50:13Z</time></trkpt><trkpt lat="44.08998711678827" lon="9.907766552041673"><ele>169.0</ele><time>2026-04-12T15:50:17Z</time></trkpt><trkpt lat="44.08996123874812" lon="9.907857787007686"><ele>169.0</ele><time>2026-04-12T15:50:21Z</time></trkpt><trkpt lat="44.08993020679927" lon="9.907936749324838"><ele>169.0</ele><time>2026-04-12T15:50:26Z</time></trkpt><trkpt lat="44.089893310259534" lon="9.908041516819585"><ele>165.83333333333334</ele><time>2026-04-12T15:50:30.999Z</time></trkpt><trkpt lat="44.089826929321006" lon="9.908074278260958"><ele>162.66666666666669</ele><time>2026-04-12T15:50:35.999Z</time></trkpt><trkpt lat="44.08974869848212" lon="9.908046067121449"><ele>159.5</ele><time>2026-04-12T15:50:38.999Z</time></trkpt><trkpt lat="44.0896788457074" lon="9.908024181128246"><ele>156.33333333333334</ele><time>2026-04-12T15:50:41.999Z</time></trkpt><trkpt lat="44.0896001381791" lon="9.908037337075198"><ele>153.16666666666666</ele><time>2026-04-12T15:50:44.999Z</time></trkpt><trkpt lat="44.08950739313937" lon="9.908093000059589"><ele>150.0</ele><time>2026-04-12T15:50:46.999Z</time></trkpt><trkpt lat="44.08940247347392" lon="9.908180244724303"><ele>150.0</ele><time>2026-04-12T15:50:48.999Z</time></trkpt><trkpt lat="44.089329016219054" lon="9.90821090771932"><ele>150.0</ele><time>2026-04-12T15:50:50.999Z</time></trkpt><trkpt lat="44.089219429325745" lon="9.908277661260511"><ele>150.0</ele><time>2026-04-12T15:50:52.999Z</time></trkpt><trkpt lat="44.08913043199176" lon="9.908336197349719"><ele>150.0</ele><time>2026-04-12T15:50:54.999Z</time></trkpt><trkpt lat="44.08904980475252" lon="9.908413799771786"><ele>150.0</ele><time>2026-04-12T15:50:56.999Z</time></trkpt><trkpt lat="44.088983406273776" lon="9.908514534041702"><ele>148.33333333333334</ele><time>2026-04-12T15:50:58.999Z</time></trkpt><trkpt lat="44.088941725302526" lon="9.908614987548578"><ele>146.66666666666666</ele><time>2026-04-12T15:51:00.999Z</time></trkpt><trkpt lat="44.08890745234975" lon="9.908697999745696"><ele>145.0</ele><time>2026-04-12T15:51:02.999Z</time></trkpt><trkpt lat="44.08887657073738" lon="9.908777876528838"><ele>143.33333333333331</ele><time>2026-04-12T15:51:04.999Z</time></trkpt><trkpt lat="44.08875686711437" lon="9.90887582638574"><ele>141.66666666666666</ele><time>2026-04-12T15:51:07.999Z</time></trkpt><trkpt lat="44.08874670061525" lon="9.908971576217377"><ele>140.0</ele><time>2026-04-12T15:51:11.999Z</time></trkpt><trkpt lat="44.088732946887546" lon="9.909101111372633"><ele>140.0</ele><time>2026-04-12T15:51:14.999Z</time></trkpt><trkpt lat="44.08889085600342" lon="9.909221681186443"><ele>140.0</ele><time>2026-04-12T15:51:18.999Z</time></trkpt><trkpt lat="44.08890091311733" lon="9.90931799189351"><ele>140.0</ele><time>2026-04-12T15:51:23.999Z</time></trkpt><trkpt lat="44.08894437234152" lon="9.909400882795692"><ele>140.0</ele><time>2026-04-12T15:51:29Z</time></trkpt><trkpt lat="44.08896744996472" lon="9.909489014435044"><ele>140.0</ele><time>2026-04-12T15:51:34Z</time></trkpt><trkpt lat="44.08898775221882" lon="9.909572267747778"><ele>139.14285714285714</ele><time>2026-04-12T15:51:38Z</time></trkpt><trkpt lat="44.0890516418031" lon="9.909550224717425"><ele>138.28571428571428</ele><time>2026-04-12T15:51:42Z</time></trkpt><trkpt lat="44.08907450386052" lon="9.90946045297205"><ele>137.42857142857144</ele><time>2026-04-12T15:51:47Z</time></trkpt><trkpt lat="44.08912874795226" lon="9.909505177615944"><ele>136.57142857142856</ele><time>2026-04-12T15:51:56Z</time></trkpt><trkpt lat="44.089147742094134" lon="9.909602914556228"><ele>135.71428571428572</ele><time>2026-04-12T15:52:01Z</time></trkpt><trkpt lat="44.089201799255136" lon="9.909668360247595"><ele>134.85714285714286</ele><time>2026-04-12T15:52:53.999Z</time></trkpt><trkpt lat="44.089264016345155" lon="9.909723522861741"><ele>134.0</ele><time>2026-04-12T15:53:19.999Z</time></trkpt><trkpt lat="44.08932779344552" lon="9.909759984641347"><ele>133.0</ele><time>2026-04-12T15:53:24.999Z</time></trkpt><trkpt lat="44.089390942155205" lon="9.909741534069026"><ele>132.0</ele><time>2026-04-12T15:53:42Z</time></trkpt><trkpt lat="44.0894364602688" lon="9.909828742365436"><ele>131.0</ele><time>2026-04-12T15:53:49Z</time></trkpt><trkpt lat="44.089459312501376" lon="9.909916173756026"><ele>130.0</ele><time>2026-04-12T15:53:52Z</time></trkpt><trkpt lat="44.08949326684571" lon="9.910042252408989"><ele>129.0</ele><time>2026-04-12T15:53:57Z</time></trkpt><trkpt lat="44.08947123020153" lon="9.910138575370762"><ele>128.0</ele><time>2026-04-12T15:54:01Z</time></trkpt><trkpt lat="44.08947889329203" lon="9.910238439119496"><ele>123.57142857142857</ele><time>2026-04-12T15:54:05Z</time></trkpt><trkpt lat="44.08943654248385" lon="9.910304425956797"><ele>119.14285714285714</ele><time>2026-04-12T15:54:08Z</time></trkpt><trkpt lat="44.089391149738546" lon="9.910396526779545"><ele>114.71428571428571</ele><time>2026-04-12T15:54:12Z</time></trkpt><trkpt lat="44.08933886318825" lon="9.910451463551848"><ele>110.28571428571428</ele><time>2026-04-12T15:54:15Z</time></trkpt><trkpt lat="44.08929879845864" lon="9.910527991426761"><ele>105.85714285714286</ele><time>2026-04-12T15:54:17Z</time></trkpt><trkpt lat="44.089225598287115" lon="9.910577634911604"><ele>101.42857142857142</ele><time>2026-04-12T15:54:27Z</time></trkpt><trkpt lat="44.08916122501192" lon="9.91059251364185"><ele>97.0</ele><time>2026-04-12T15:54:29Z</time></trkpt><trkpt lat="44.089101375046575" lon="9.910563826050632"><ele>98.42857142857143</ele><time>2026-04-12T15:54:32Z</time></trkpt><trkpt lat="44.089037193001985" lon="9.91055271517709"><ele>99.85714285714286</ele><time>2026-04-12T15:54:35Z</time></trkpt><trkpt lat="44.08896062531516" lon="9.910551277912608"><ele>101.28571428571429</ele><time>2026-04-12T15:54:38Z</time></trkpt><trkpt lat="44.088880626100526" lon="9.910542632690081"><ele>102.71428571428572</ele><time>2026-04-12T15:54:41Z</time></trkpt><trkpt lat="44.08879893119654" lon="9.910544491716323"><ele>104.14285714285714</ele><time>2026-04-12T15:54:44Z</time></trkpt><trkpt lat="44.088718783610965" lon="9.910547394889763"><ele>105.57142857142858</ele><time>2026-04-12T15:54:46Z</time></trkpt><trkpt lat="44.08866023492627" lon="9.910588292178094"><ele>107.0</ele><time>2026-04-12T15:54:48Z</time></trkpt><trkpt lat="44.0885889551094" lon="9.910624435961934"><ele>106.99999999999999</ele><time>2026-04-12T15:54:51Z</time></trkpt><trkpt lat="44.08851095486162" lon="9.910647402675691"><ele>107.0</ele><time>2026-04-12T15:54:54Z</time></trkpt><trkpt lat="44.08844499486495" lon="9.910702566093699"><ele>107.0</ele><time>2026-04-12T15:54:57.999Z</time></trkpt><trkpt lat="44.08837322946369" lon="9.910773769619752"><ele>107.0</ele><time>2026-04-12T15:55:00.999Z</time></trkpt><trkpt lat="44.08831051301643" lon="9.910801589848896"><ele>106.99999999999999</ele><time>2026-04-12T15:55:03.999Z</time></trkpt><trkpt lat="44.08823487393764" lon="9.910791902671583"><ele>107.0</ele><time>2026-04-12T15:55:07.999Z</time></trkpt><trkpt lat="44.08816167337334" lon="9.91078078188192"><ele>106.28571428571429</ele><time>2026-04-12T15:55:11.999Z</time></trkpt><trkpt lat="44.088088585528126" lon="9.91076645664746"><ele>105.57142857142857</ele><time>2026-04-12T15:55:16.999Z</time></trkpt><trkpt lat="44.088025743022314" lon="9.91077719729158"><ele>104.85714285714286</ele><time>2026-04-12T15:55:20.999Z</time></trkpt><trkpt lat="44.087943662048836" lon="9.910770097632001"><ele>104.14285714285714</ele><time>2026-04-12T15:55:24.999Z</time></trkpt><trkpt lat="44.0878896018989" lon="9.910818014844498"><ele>103.42857142857143</ele><time>2026-04-12T15:55:27.999Z</time></trkpt><trkpt lat="44.08781966340572" lon="9.910857696586143"><ele>102.71428571428572</ele><time>2026-04-12T15:55:31.999Z</time></trkpt><trkpt lat="44.08775934005218" lon="9.910889252816537"><ele>102.0</ele><time>2026-04-12T15:55:34.999Z</time></trkpt><trkpt lat="44.087701005094885" lon="9.910955712958636"><ele>102.0</ele><time>2026-04-12T15:55:39Z</time></trkpt><trkpt lat="44.08764860150726" lon="9.911010890093323"><ele>102.0</ele><time>2026-04-12T15:55:43Z</time></trkpt><trkpt lat="44.08758563148009" lon="9.911035494756078"><ele>102.0</ele><time>2026-04-12T15:55:47Z</time></trkpt><trkpt lat="44.0875094590194" lon="9.911063041385125"><ele>102.0</ele><time>2026-04-12T15:55:53Z</time></trkpt><trkpt lat="44.08744492114687" lon="9.911094908277395"><ele>102.0</ele><time>2026-04-12T15:55:57Z</time></trkpt><trkpt lat="44.08735982740387" lon="9.911094675481143"><ele>102.0</ele><time>2026-04-12T15:57:10.999Z</time></trkpt><trkpt lat="44.087288729995024" lon="9.911109098047621"><ele>102.0</ele><time>2026-04-12T15:57:14.999Z</time></trkpt><trkpt lat="44.08721671241754" lon="9.911110868631665"><ele>101.0</ele><time>2026-04-12T15:57:16.999Z</time></trkpt><trkpt lat="44.087141292831916" lon="9.911125397907188"><ele>100.0</ele><time>2026-04-12T15:57:19.999Z</time></trkpt><trkpt lat="44.08707790369451" lon="9.911128223048184"><ele>99.0</ele><time>2026-04-12T15:57:21.999Z</time></trkpt><trkpt lat="44.08701081374409" lon="9.911087968338547"><ele>98.0</ele><time>2026-04-12T15:57:23.999Z</time></trkpt><trkpt lat="44.08693988910437" lon="9.911056319635001"><ele>97.0</ele><time>2026-04-12T15:57:25.999Z</time></trkpt><trkpt lat="44.086873272206404" lon="9.9110259610684"><ele>96.0</ele><time>2026-04-12T15:57:27.999Z</time></trkpt><trkpt lat="44.086778216213915" lon="9.910983365634738"><ele>96.0</ele><time>2026-04-12T15:57:29.999Z</time></trkpt><trkpt lat="44.08670414373147" lon="9.910988272049453"><ele>96.0</ele><time>2026-04-12T15:57:30.999Z</time></trkpt><trkpt lat="44.08661704899259" lon="9.91094694515537"><ele>96.0</ele><time>2026-04-12T15:57:31.999Z</time></trkpt><trkpt lat="44.0865453446448" lon="9.91088560340625"><ele>96.0</ele><time>2026-04-12T15:57:32.999Z</time></trkpt><trkpt lat="44.08646593985155" lon="9.910863264874918"><ele>96.0</ele><time>2026-04-12T15:57:33.999Z</time></trkpt><trkpt lat="44.08639792300703" lon="9.910845935154528"><ele>96.0</ele><time>2026-04-12T15:57:34.999Z</time></trkpt><trkpt lat="44.086304894193994" lon="9.910851118140188"><ele>96.6</ele><time>2026-04-12T15:57:36.999Z</time></trkpt><trkpt lat="44.08628733133622" lon="9.911019353481644"><ele>97.19999999999999</ele><time>2026-04-12T15:57:39.999Z</time></trkpt><trkpt lat="44.086321441754635" lon="9.91113715443036"><ele>97.80000000000001</ele><time>2026-04-12T15:57:41.999Z</time></trkpt><trkpt lat="44.086278263744596" lon="9.911218217272717"><ele>98.4</ele><time>2026-04-12T15:57:46.001Z</time></trkpt><trkpt lat="44.08630311882456" lon="9.911137110736796"><ele>99.0</ele><time>2026-04-12T15:57:48.001Z</time></trkpt><trkpt lat="44.08626899840079" lon="9.911005303823146"><ele>98.16666666666667</ele><time>2026-04-12T15:57:51.001Z</time></trkpt><trkpt lat="44.086264992603084" lon="9.910895530065819"><ele>97.33333333333333</ele><time>2026-04-12T15:57:53Z</time></trkpt><trkpt lat="44.08628191006551" lon="9.910790600539615"><ele>96.5</ele><time>2026-04-12T15:57:55Z</time></trkpt><trkpt lat="44.08631121774233" lon="9.910701184097318"><ele>95.66666666666666</ele><time>2026-04-12T15:57:57Z</time></trkpt><trkpt lat="44.08634442504831" lon="9.910624025775997"><ele>94.83333333333333</ele><time>2026-04-12T15:57:59Z</time></trkpt><trkpt lat="44.086377301246884" lon="9.910515468106246"><ele>94.0</ele><time>2026-04-12T15:58:02Z</time></trkpt><trkpt lat="44.08638764440393" lon="9.910408210027594"><ele>94.0</ele><time>2026-04-12T15:58:05Z</time></trkpt><trkpt lat="44.08636801363088" lon="9.910295128701206"><ele>94.0</ele><time>2026-04-12T15:58:08Z</time></trkpt><trkpt lat="44.08635449414739" lon="9.91017418674999"><ele>94.0</ele><time>2026-04-12T15:58:11Z</time></trkpt><trkpt lat="44.08633552139252" lon="9.91006187579767"><ele>94.0</ele><time>2026-04-12T15:58:15Z</time></trkpt><trkpt lat="44.08634903767366" lon="9.909963221305315"><ele>94.0</ele><time>2026-04-12T15:58:18Z</time></trkpt><trkpt lat="44.086371410158165" lon="9.909851185941337"><ele>94.0</ele><time>2026-04-12T15:58:21Z</time></trkpt><trkpt lat="44.086392667923064" lon="9.909744662748867"><ele>94.66666666666666</ele><time>2026-04-12T15:58:24Z</time></trkpt><trkpt lat="44.08641797842702" lon="9.909633633630246"><ele>95.33333333333333</ele><time>2026-04-12T15:58:27Z</time></trkpt><trkpt lat="44.08645052351161" lon="9.909520563551416"><ele>96.0</ele><time>2026-04-12T15:58:30Z</time></trkpt><trkpt lat="44.08650142790809" lon="9.909410682021852"><ele>96.66666666666666</ele><time>2026-04-12T15:58:33Z</time></trkpt><trkpt lat="44.08654170059621" lon="9.909319766594937"><ele>97.33333333333333</ele><time>2026-04-12T15:58:35Z</time></trkpt><trkpt lat="44.08658338313434" lon="9.909209904993062"><ele>98.0</ele><time>2026-04-12T15:58:37Z</time></trkpt><trkpt lat="44.0866302597123" lon="9.909093748277558"><ele>98.0</ele><time>2026-04-12T15:58:39Z</time></trkpt><trkpt lat="44.08667986463501" lon="9.90897971791205"><ele>98.0</ele><time>2026-04-12T15:58:41Z</time></trkpt><trkpt lat="44.08672580620714" lon="9.90886142429376"><ele>98.0</ele><time>2026-04-12T15:58:43Z</time></trkpt><trkpt lat="44.086771580243145" lon="9.908748393349565"><ele>98.0</ele><time>2026-04-12T15:58:45Z</time></trkpt><trkpt lat="44.08681658021328" lon="9.908639708228394"><ele>98.0</ele><time>2026-04-12T15:58:47Z</time></trkpt><trkpt lat="44.0868578853575" lon="9.908534074574494"><ele>97.99999999999999</ele><time>2026-04-12T15:58:49Z</time></trkpt><trkpt lat="44.08690720156185" lon="9.908443775471948"><ele>98.0</ele><time>2026-04-12T15:58:51Z</time></trkpt><trkpt lat="44.08697829216621" lon="9.908379205686703"><ele>98.0</ele><time>2026-04-12T15:58:53Z</time></trkpt><trkpt lat="44.08705125559491" lon="9.908315728535445"><ele>98.0</ele><time>2026-04-12T15:58:55Z</time></trkpt><trkpt lat="44.087133799337686" lon="9.908264130228092"><ele>97.99999999999999</ele><time>2026-04-12T15:58:57Z</time></trkpt><trkpt lat="44.087215211841425" lon="9.908226343881495"><ele>98.0</ele><time>2026-04-12T15:58:59Z</time></trkpt><trkpt lat="44.08728497144398" lon="9.908187695659564"><ele>98.14285714285714</ele><time>2026-04-12T15:59:01Z</time></trkpt><trkpt lat="44.087352162066594" lon="9.90812975941487"><ele>98.28571428571428</ele><time>2026-04-12T15:59:02.999Z</time></trkpt><trkpt lat="44.087409692390516" lon="9.908067006625734"><ele>98.42857142857143</ele><time>2026-04-12T15:59:04.999Z</time></trkpt><trkpt lat="44.08746013250004" lon="9.907990270693288"><ele>98.57142857142857</ele><time>2026-04-12T15:59:06.999Z</time></trkpt><trkpt lat="44.08750208161641" lon="9.907905730866709"><ele>98.71428571428571</ele><time>2026-04-12T15:59:08.999Z</time></trkpt><trkpt lat="44.08753343996471" lon="9.90781413600715"><ele>98.85714285714286</ele><time>2026-04-12T15:59:10.999Z</time></trkpt><trkpt lat="44.08756002839477" lon="9.907716988473082"><ele>99.0</ele><time>2026-04-12T15:59:12.999Z</time></trkpt><trkpt lat="44.08759065735894" lon="9.907608000807855"><ele>96.83333333333333</ele><time>2026-04-12T15:59:14.999Z</time></trkpt><trkpt lat="44.08763602375226" lon="9.907500465705759"><ele>94.66666666666667</ele><time>2026-04-12T15:59:16.999Z</time></trkpt><trkpt lat="44.08768952536367" lon="9.907406696563395"><ele>92.5</ele><time>2026-04-12T15:59:18.999Z</time></trkpt><trkpt lat="44.08774400787324" lon="9.907315457470736"><ele>90.33333333333334</ele><time>2026-04-12T15:59:20.999Z</time></trkpt><trkpt lat="44.08780257817189" lon="9.907234297529948"><ele>88.16666666666667</ele><time>2026-04-12T15:59:22.998Z</time></trkpt><trkpt lat="44.08786107642707" lon="9.907148116107837"><ele>86.0</ele><time>2026-04-12T15:59:24.998Z</time></trkpt><trkpt lat="44.087916379927044" lon="9.907057620940531"><ele>86.0</ele><time>2026-04-12T15:59:26.998Z</time></trkpt><trkpt lat="44.08797794636223" lon="9.906971592112278"><ele>86.0</ele><time>2026-04-12T15:59:28.998Z</time></trkpt><trkpt lat="44.0880251447107" lon="9.906875111085355"><ele>86.0</ele><time>2026-04-12T15:59:30.998Z</time></trkpt><trkpt lat="44.08805970752472" lon="9.906775241281473"><ele>86.0</ele><time>2026-04-12T15:59:32.998Z</time></trkpt><trkpt lat="44.088076116507125" lon="9.906665643398405"><ele>86.0</ele><time>2026-04-12T15:59:34.998Z</time></trkpt><trkpt lat="44.0880811129973" lon="9.906554337689004"><ele>86.0</ele><time>2026-04-12T15:59:36.998Z</time></trkpt><trkpt lat="44.088069288818346" lon="9.906439525787265"><ele>84.5</ele><time>2026-04-12T15:59:38.998Z</time></trkpt><trkpt lat="44.0880697103059" lon="9.906326153284713"><ele>83.0</ele><time>2026-04-12T15:59:40.998Z</time></trkpt><trkpt lat="44.08804312717104" lon="9.906221587289517"><ele>81.5</ele><time>2026-04-12T15:59:42.998Z</time></trkpt><trkpt lat="44.088032307364195" lon="9.906114314003895"><ele>80.0</ele><time>2026-04-12T15:59:44.998Z</time></trkpt><trkpt lat="44.0880203059683" lon="9.906014478200632"><ele>78.5</ele><time>2026-04-12T15:59:46.998Z</time></trkpt><trkpt lat="44.088018593801124" lon="9.905914686357946"><ele>77.0</ele><time>2026-04-12T15:59:48.998Z</time></trkpt><trkpt lat="44.08801246338496" lon="9.905819157004482"><ele>76.71428571428571</ele><time>2026-04-12T15:59:51Z</time></trkpt><trkpt lat="44.08802248396124" lon="9.905720424198327"><ele>76.42857142857143</ele><time>2026-04-12T15:59:53Z</time></trkpt><trkpt lat="44.08803758602909" lon="9.905622665891698"><ele>76.14285714285714</ele><time>2026-04-12T15:59:55Z</time></trkpt><trkpt lat="44.08805950974949" lon="9.905527822769331"><ele>75.85714285714286</ele><time>2026-04-12T15:59:57Z</time></trkpt><trkpt lat="44.08809154633608" lon="9.905436650308994"><ele>75.57142857142857</ele><time>2026-04-12T15:59:59Z</time></trkpt><trkpt lat="44.08812056258784" lon="9.905354889546217"><ele>75.28571428571428</ele><time>2026-04-12T16:00:01Z</time></trkpt><trkpt lat="44.08815068908635" lon="9.905274752905443"><ele>75.0</ele><time>2026-04-12T16:00:03Z</time></trkpt><trkpt lat="44.08818813741146" lon="9.905191192000437"><ele>75.0</ele><time>2026-04-12T16:00:05Z</time></trkpt><trkpt lat="44.08823410133381" lon="9.90511214084454"><ele>75.0</ele><time>2026-04-12T16:00:06.999Z</time></trkpt><trkpt lat="44.088295902825884" lon="9.90505360534292"><ele>75.0</ele><time>2026-04-12T16:00:08.999Z</time></trkpt><trkpt lat="44.0883596821686" lon="9.904999046563216"><ele>75.0</ele><time>2026-04-12T16:00:10.999Z</time></trkpt><trkpt lat="44.08842952665877" lon="9.90494968403555"><ele>75.0</ele><time>2026-04-12T16:00:12.999Z</time></trkpt><trkpt lat="44.08850411161291" lon="9.904914399628518"><ele>75.0</ele><time>2026-04-12T16:00:14.999Z</time></trkpt><trkpt lat="44.08857958218525" lon="9.904871995524436"><ele>77.33333333333333</ele><time>2026-04-12T16:00:16.999Z</time></trkpt><trkpt lat="44.08866448159999" lon="9.904864615200538"><ele>79.66666666666667</ele><time>2026-04-12T16:00:18.999Z</time></trkpt><trkpt lat="44.08874761501749" lon="9.904874232929652"><ele>82.0</ele><time>2026-04-12T16:00:20.999Z</time></trkpt><trkpt lat="44.08882205379082" lon="9.90490015141304"><ele>84.33333333333334</ele><time>2026-04-12T16:00:22.999Z</time></trkpt><trkpt lat="44.088899985413484" lon="9.904913433665032"><ele>86.66666666666667</ele><time>2026-04-12T16:00:24.999Z</time></trkpt><trkpt lat="44.0889804229368" lon="9.904910225791724"><ele>89.0</ele><time>2026-04-12T16:00:26.999Z</time></trkpt><trkpt lat="44.08905461655592" lon="9.904871508827355"><ele>91.4</ele><time>2026-04-12T16:00:28.999Z</time></trkpt><trkpt lat="44.089112645140695" lon="9.904786251800788"><ele>93.80000000000001</ele><time>2026-04-12T16:00:30.999Z</time></trkpt><trkpt lat="44.089163002364394" lon="9.904687321332911"><ele>96.19999999999999</ele><time>2026-04-12T16:00:32.999Z</time></trkpt><trkpt lat="44.0891954841988" lon="9.9045691404425"><ele>98.6</ele><time>2026-04-12T16:00:34.999Z</time></trkpt><trkpt lat="44.089232345930014" lon="9.9044472625423"><ele>101.0</ele><time>2026-04-12T16:00:36.999Z</time></trkpt><trkpt lat="44.089294859361225" lon="9.904347274821307"><ele>101.0</ele><time>2026-04-12T16:00:38.999Z</time></trkpt><trkpt lat="44.08936462721581" lon="9.90425381722303"><ele>101.0</ele><time>2026-04-12T16:00:40.999Z</time></trkpt><trkpt lat="44.08943955727116" lon="9.904166742316203"><ele>101.0</ele><time>2026-04-12T16:00:42.999Z</time></trkpt><trkpt lat="44.08950694109859" lon="9.904070392747139"><ele>101.0</ele><time>2026-04-12T16:00:44.999Z</time></trkpt><trkpt lat="44.08956931067958" lon="9.903967742624303"><ele>101.0</ele><time>2026-04-12T16:00:46.999Z</time></trkpt><trkpt lat="44.08963875892988" lon="9.903873817422294"><ele>98.4</ele><time>2026-04-12T16:00:48.999Z</time></trkpt><trkpt lat="44.089699821483464" lon="9.903769982681661"><ele>95.8</ele><time>2026-04-12T16:00:50.999Z</time></trkpt><trkpt lat="44.08976270998172" lon="9.90366154557515"><ele>93.2</ele><time>2026-04-12T16:00:52.999Z</time></trkpt><trkpt lat="44.089826822347085" lon="9.903551515231786"><ele>90.60000000000001</ele><time>2026-04-12T16:00:54.999Z</time></trkpt><trkpt lat="44.089890716191626" lon="9.903439454819289"><ele>88.0</ele><time>2026-04-12T16:00:56.999Z</time></trkpt><trkpt lat="44.089959077699596" lon="9.903331482382095"><ele>88.0</ele><time>2026-04-12T16:00:58.999Z</time></trkpt><trkpt lat="44.090031801828104" lon="9.9032336988414"><ele>88.0</ele><time>2026-04-12T16:01:00.999Z</time></trkpt><trkpt lat="44.090116789140204" lon="9.90315786879957"><ele>88.0</ele><time>2026-04-12T16:01:02.999Z</time></trkpt><trkpt lat="44.09021645191271" lon="9.90310979215471"><ele>88.0</ele><time>2026-04-12T16:01:04.999Z</time></trkpt><trkpt lat="44.09031600592534" lon="9.903080790782372"><ele>88.0</ele><time>2026-04-12T16:01:06.999Z</time></trkpt><trkpt lat="44.090397874328076" lon="9.90303047938574"><ele>88.0</ele><time>2026-04-12T16:01:08.999Z</time></trkpt><trkpt lat="44.090432789792196" lon="9.90291842571991"><ele>88.0</ele><time>2026-04-12T16:01:10.999Z</time></trkpt><trkpt lat="44.090420716615505" lon="9.902799708413818"><ele>88.0</ele><time>2026-04-12T16:01:12.999Z</time></trkpt><trkpt lat="44.09037151940157" lon="9.902701101873683"><ele>88.0</ele><time>2026-04-12T16:01:14.999Z</time></trkpt><trkpt lat="44.09032236191993" lon="9.902608063457178"><ele>88.0</ele><time>2026-04-12T16:01:16.999Z</time></trkpt><trkpt lat="44.0902982980688" lon="9.902495794721268"><ele>88.0</ele><time>2026-04-12T16:01:18.999Z</time></trkpt><trkpt lat="44.09029168237489" lon="9.902376939289766"><ele>85.80000000000001</ele><time>2026-04-12T16:01:20.999Z</time></trkpt><trkpt lat="44.09030737871754" lon="9.902249442690286"><ele>83.60000000000001</ele><time>2026-04-12T16:01:22.999Z</time></trkpt><trkpt lat="44.09032392922404" lon="9.902125047866097"><ele>81.4</ele><time>2026-04-12T16:01:24.999Z</time></trkpt><trkpt lat="44.090347513777076" lon="9.902008326971968"><ele>79.2</ele><time>2026-04-12T16:01:26.999Z</time></trkpt><trkpt lat="44.0903775091919" lon="9.901888005573634"><ele>77.0</ele><time>2026-04-12T16:01:28.999Z</time></trkpt><trkpt lat="44.09042983081726" lon="9.901777804137742"><ele>78.6</ele><time>2026-04-12T16:01:30.999Z</time></trkpt><trkpt lat="44.090492232151675" lon="9.901686503862239"><ele>80.2</ele><time>2026-04-12T16:01:32.998Z</time></trkpt><trkpt lat="44.09057031510647" lon="9.901621219959324"><ele>81.8</ele><time>2026-04-12T16:01:34.998Z</time></trkpt><trkpt lat="44.09065440680374" lon="9.901567477608497"><ele>83.4</ele><time>2026-04-12T16:01:36.998Z</time></trkpt><trkpt lat="44.09074873415331" lon="9.901544828941372"><ele>85.0</ele><time>2026-04-12T16:01:38.998Z</time></trkpt><trkpt lat="44.090846668024156" lon="9.9015339879691"><ele>85.0</ele><time>2026-04-12T16:01:40.998Z</time></trkpt><trkpt lat="44.09095153827559" lon="9.90151834373719"><ele>85.0</ele><time>2026-04-12T16:01:42.998Z</time></trkpt><trkpt lat="44.091064640818665" lon="9.901506093066375"><ele>85.0</ele><time>2026-04-12T16:01:44.998Z</time></trkpt><trkpt lat="44.09117598348392" lon="9.90150052892929"><ele>85.0</ele><time>2026-04-12T16:01:46.998Z</time></trkpt><trkpt lat="44.0912894544303" lon="9.901495769541661"><ele>85.0</ele><time>2026-04-12T16:01:48.998Z</time></trkpt><trkpt lat="44.09140364747927" lon="9.90148436433136"><ele>85.0</ele><time>2026-04-12T16:01:50.998Z</time></trkpt><trkpt lat="44.09149830906524" lon="9.901470207632597"><ele>85.0</ele><time>2026-04-12T16:01:52.998Z</time></trkpt><trkpt lat="44.09160016534357" lon="9.901437419656048"><ele>85.0</ele><time>2026-04-12T16:01:54.998Z</time></trkpt><trkpt lat="44.091704041421366" lon="9.901385892578121"><ele>85.0</ele><time>2026-04-12T16:01:57Z</time></trkpt><trkpt lat="44.09179763940026" lon="9.90132307412763"><ele>85.0</ele><time>2026-04-12T16:01:59Z</time></trkpt><trkpt lat="44.0918740777898" lon="9.901230969298036"><ele>83.5</ele><time>2026-04-12T16:02:01Z</time></trkpt><trkpt lat="44.09192054718592" lon="9.901125679063659"><ele>82.0</ele><time>2026-04-12T16:02:03Z</time></trkpt><trkpt lat="44.09192358224367" lon="9.901024708806043"><ele>80.5</ele><time>2026-04-12T16:02:05Z</time></trkpt><trkpt lat="44.091955652291546" lon="9.900937016194128"><ele>79.0</ele><time>2026-04-12T16:02:09Z</time></trkpt><trkpt lat="44.09189391091227" lon="9.90089308100408"><ele>77.5</ele><time>2026-04-12T16:03:15.999Z</time></trkpt><trkpt lat="44.091831928891885" lon="9.900821547902815"><ele>76.0</ele><time>2026-04-12T16:03:17.999Z</time></trkpt><trkpt lat="44.09174151495186" lon="9.900772321069164"><ele>76.0</ele><time>2026-04-12T16:03:19.999Z</time></trkpt><trkpt lat="44.09167925692796" lon="9.900694727847965"><ele>76.0</ele><time>2026-04-12T16:03:21.999Z</time></trkpt><trkpt lat="44.09165708303192" lon="9.900535153423949"><ele>76.0</ele><time>2026-04-12T16:03:23.999Z</time></trkpt><trkpt lat="44.09167392440572" lon="9.900444571417484"><ele>76.0</ele><time>2026-04-12T16:03:24.999Z</time></trkpt><trkpt lat="44.09174599206871" lon="9.900320033938515"><ele>76.0</ele><time>2026-04-12T16:03:26.999Z</time></trkpt><trkpt lat="44.09181526111093" lon="9.900225608592322"><ele>76.0</ele><time>2026-04-12T16:03:28.999Z</time></trkpt><trkpt lat="44.091875241534545" lon="9.900105862663985"><ele>76.0</ele><time>2026-04-12T16:03:30.999Z</time></trkpt><trkpt lat="44.09191947539758" lon="9.899983157869505"><ele>76.0</ele><time>2026-04-12T16:03:32.999Z</time></trkpt><trkpt lat="44.091934219388946" lon="9.899862941109857"><ele>76.0</ele><time>2026-04-12T16:03:34.999Z</time></trkpt><trkpt lat="44.09188573791608" lon="9.899757695541117"><ele>76.0</ele><time>2026-04-12T16:03:36.999Z</time></trkpt><trkpt lat="44.091790699746056" lon="9.899720308508806"><ele>76.5</ele><time>2026-04-12T16:03:38.999Z</time></trkpt><trkpt lat="44.09169501818726" lon="9.899750865502575"><ele>77.0</ele><time>2026-04-12T16:03:40.999Z</time></trkpt><trkpt lat="44.091611602975156" lon="9.89981017301039"><ele>77.5</ele><time>2026-04-12T16:03:42.998Z</time></trkpt><trkpt lat="44.09153245205536" lon="9.899861787405868"><ele>78.0</ele><time>2026-04-12T16:03:44.998Z</time></trkpt><trkpt lat="44.09145943334639" lon="9.89990615225731"><ele>78.5</ele><time>2026-04-12T16:03:46.998Z</time></trkpt><trkpt lat="44.09138353437017" lon="9.899954417289722"><ele>79.0</ele><time>2026-04-12T16:03:48.998Z</time></trkpt><trkpt lat="44.091310274847764" lon="9.899988630036992"><ele>79.0</ele><time>2026-04-12T16:03:50.998Z</time></trkpt><trkpt lat="44.091232881008004" lon="9.90000211699166"><ele>79.0</ele><time>2026-04-12T16:03:52.998Z</time></trkpt><trkpt lat="44.09115465479427" lon="9.900001148757415"><ele>79.0</ele><time>2026-04-12T16:03:54.998Z</time></trkpt><trkpt lat="44.09107978375103" lon="9.899970074103463"><ele>79.0</ele><time>2026-04-12T16:03:56.998Z</time></trkpt><trkpt lat="44.09102057231102" lon="9.899927678838148"><ele>79.0</ele><time>2026-04-12T16:03:58.998Z</time></trkpt><trkpt lat="44.09095973814811" lon="9.899887488438537"><ele>79.0</ele><time>2026-04-12T16:04:01Z</time></trkpt><trkpt lat="44.090888741292105" lon="9.899819467925076"><ele>79.0</ele><time>2026-04-12T16:04:03Z</time></trkpt><trkpt lat="44.09081438406211" lon="9.899754597083737"><ele>79.0</ele><time>2026-04-12T16:04:05Z</time></trkpt><trkpt lat="44.09075052359147" lon="9.899692945342608"><ele>79.0</ele><time>2026-04-12T16:04:07Z</time></trkpt><trkpt lat="44.090685251644416" lon="9.899632737563445"><ele>79.0</ele><time>2026-04-12T16:04:09Z</time></trkpt><trkpt lat="44.09062471236514" lon="9.899564013787451"><ele>79.0</ele><time>2026-04-12T16:04:11Z</time></trkpt><trkpt lat="44.09055890208491" lon="9.899502041575165"><ele>79.0</ele><time>2026-04-12T16:04:13Z</time></trkpt><trkpt lat="44.090505290496644" lon="9.899415118526766"><ele>76.5</ele><time>2026-04-12T16:04:15Z</time></trkpt><trkpt lat="44.090478751189075" lon="9.899308488460294"><ele>74.0</ele><time>2026-04-12T16:04:17Z</time></trkpt><trkpt lat="44.09048576511328" lon="9.899200784266602"><ele>71.5</ele><time>2026-04-12T16:04:19Z</time></trkpt><trkpt lat="44.090554378503626" lon="9.89913435647236"><ele>69.0</ele><time>2026-04-12T16:04:21Z</time></trkpt><trkpt lat="44.090625604337305" lon="9.899071764884576"><ele>66.5</ele><time>2026-04-12T16:04:23Z</time></trkpt><trkpt lat="44.09068841241788" lon="9.899003731232915"><ele>64.0</ele><time>2026-04-12T16:04:25Z</time></trkpt><trkpt lat="44.09074918232095" lon="9.898931893714732"><ele>68.66666666666666</ele><time>2026-04-12T16:04:27Z</time></trkpt><trkpt lat="44.09081050423866" lon="9.898859388363308"><ele>73.33333333333333</ele><time>2026-04-12T16:04:28.999Z</time></trkpt><trkpt lat="44.0908622202317" lon="9.898774397654181"><ele>78.0</ele><time>2026-04-12T16:04:30.999Z</time></trkpt><trkpt lat="44.090897326268404" lon="9.898667020084465"><ele>82.66666666666667</ele><time>2026-04-12T16:04:32.999Z</time></trkpt><trkpt lat="44.0909082225598" lon="9.898538493591113"><ele>87.33333333333334</ele><time>2026-04-12T16:04:34.999Z</time></trkpt><trkpt lat="44.09088857217074" lon="9.898412118317156"><ele>92.0</ele><time>2026-04-12T16:04:36.999Z</time></trkpt><trkpt lat="44.09085955909754" lon="9.898304864515202"><ele>92.33333333333334</ele><time>2026-04-12T16:04:38.999Z</time></trkpt><trkpt lat="44.09080959610671" lon="9.898210865988357"><ele>92.66666666666667</ele><time>2026-04-12T16:04:40.999Z</time></trkpt><trkpt lat="44.09075226803069" lon="9.898128778851628"><ele>93.0</ele><time>2026-04-12T16:04:42.999Z</time></trkpt><trkpt lat="44.09068932176382" lon="9.898063790852397"><ele>93.33333333333333</ele><time>2026-04-12T16:04:44.999Z</time></trkpt><trkpt lat="44.090632208809204" lon="9.897994381365473"><ele>93.66666666666666</ele><time>2026-04-12T16:04:46.999Z</time></trkpt><trkpt lat="44.090585931448615" lon="9.89790765388481"><ele>94.0</ele><time>2026-04-12T16:04:48.999Z</time></trkpt><trkpt lat="44.09057657428366" lon="9.897789161127823"><ele>93.5</ele><time>2026-04-12T16:04:50.999Z</time></trkpt><trkpt lat="44.09060886665742" lon="9.89767260160011"><ele>93.0</ele><time>2026-04-12T16:04:52.999Z</time></trkpt><trkpt lat="44.090670384147906" lon="9.89758020215618"><ele>92.5</ele><time>2026-04-12T16:04:54.999Z</time></trkpt><trkpt lat="44.09073300610063" lon="9.897500926438136"><ele>92.0</ele><time>2026-04-12T16:04:56.999Z</time></trkpt><trkpt lat="44.090807727802236" lon="9.897435095019436"><ele>91.5</ele><time>2026-04-12T16:04:58.999Z</time></trkpt><trkpt lat="44.09089202387946" lon="9.897382488196213"><ele>91.0</ele><time>2026-04-12T16:05:00.999Z</time></trkpt><trkpt lat="44.09097602990199" lon="9.89732868768258"><ele>91.0</ele><time>2026-04-12T16:05:02.999Z</time></trkpt><trkpt lat="44.09106236035597" lon="9.89728236148844"><ele>91.0</ele><time>2026-04-12T16:05:04.999Z</time></trkpt><trkpt lat="44.09114936725069" lon="9.897223991601935"><ele>91.0</ele><time>2026-04-12T16:05:06.999Z</time></trkpt><trkpt lat="44.09122555809352" lon="9.897153234697779"><ele>91.0</ele><time>2026-04-12T16:05:08.999Z</time></trkpt><trkpt lat="44.091288258918226" lon="9.897068588599877"><ele>91.0</ele><time>2026-04-12T16:05:10.999Z</time></trkpt><trkpt lat="44.09135791819743" lon="9.896986903597083"><ele>91.0</ele><time>2026-04-12T16:05:12.999Z</time></trkpt><trkpt lat="44.091413530383754" lon="9.8968705633366"><ele>91.0</ele><time>2026-04-12T16:05:14.999Z</time></trkpt><trkpt lat="44.09146916958571" lon="9.89675693430563"><ele>91.0</ele><time>2026-04-12T16:05:16.999Z</time></trkpt><trkpt lat="44.091559227349066" lon="9.896683860356335"><ele>91.0</ele><time>2026-04-12T16:05:18.999Z</time></trkpt><trkpt lat="44.09165632587638" lon="9.896629029899115"><ele>91.0</ele><time>2026-04-12T16:05:20.999Z</time></trkpt><trkpt lat="44.091765828423725" lon="9.896634812261546"><ele>91.0</ele><time>2026-04-12T16:05:22.999Z</time></trkpt><trkpt lat="44.091874920848745" lon="9.896649200897638"><ele>91.0</ele><time>2026-04-12T16:05:24.999Z</time></trkpt><trkpt lat="44.09198185678938" lon="9.896606652155794"><ele>91.0</ele><time>2026-04-12T16:05:26.999Z</time></trkpt><trkpt lat="44.09208063988664" lon="9.896514954155272"><ele>91.0</ele><time>2026-04-12T16:05:28.999Z</time></trkpt><trkpt lat="44.09215478636442" lon="9.896379158737522"><ele>91.0</ele><time>2026-04-12T16:05:30.999Z</time></trkpt><trkpt lat="44.09216350180195" lon="9.896292078891314"><ele>91.0</ele><time>2026-04-12T16:05:31.999Z</time></trkpt><trkpt lat="44.09215884800184" lon="9.896202413162179"><ele>91.0</ele><time>2026-04-12T16:05:32.999Z</time></trkpt><trkpt lat="44.09216205388517" lon="9.896108223227946"><ele>91.0</ele><time>2026-04-12T16:05:33.999Z</time></trkpt><trkpt lat="44.09214597196071" lon="9.89602319642831"><ele>91.0</ele><time>2026-04-12T16:05:34.999Z</time></trkpt><trkpt lat="44.0921230596842" lon="9.895936048674924"><ele>91.0</ele><time>2026-04-12T16:05:35.999Z</time></trkpt><trkpt lat="44.09208278182552" lon="9.895860676874175"><ele>91.0</ele><time>2026-04-12T16:05:36.999Z</time></trkpt><trkpt lat="44.09206332708501" lon="9.895777257150916"><ele>88.71428571428571</ele><time>2026-04-12T16:05:37.999Z</time></trkpt><trkpt lat="44.0920464884027" lon="9.895692079549162"><ele>86.42857142857143</ele><time>2026-04-12T16:05:38.999Z</time></trkpt><trkpt lat="44.09204762853997" lon="9.895600412306882"><ele>84.14285714285714</ele><time>2026-04-12T16:05:39.999Z</time></trkpt><trkpt lat="44.09207603395625" lon="9.895511605298212"><ele>81.85714285714286</ele><time>2026-04-12T16:05:40.999Z</time></trkpt><trkpt lat="44.09214079338755" lon="9.895453632297839"><ele>79.57142857142857</ele><time>2026-04-12T16:05:41.999Z</time></trkpt><trkpt lat="44.092211481421245" lon="9.89541803053351"><ele>77.28571428571428</ele><time>2026-04-12T16:05:42.999Z</time></trkpt><trkpt lat="44.092273521416054" lon="9.895385502240092"><ele>75.0</ele><time>2026-04-12T16:05:43.999Z</time></trkpt><trkpt lat="44.09233803762257" lon="9.895356656520068"><ele>74.99999999999999</ele><time>2026-04-12T16:05:44.999Z</time></trkpt><trkpt lat="44.09239905019213" lon="9.895328900175787"><ele>75.0</ele><time>2026-04-12T16:05:45.999Z</time></trkpt><trkpt lat="44.092466757677656" lon="9.89530547911974"><ele>75.0</ele><time>2026-04-12T16:05:46.999Z</time></trkpt><trkpt lat="44.0925341108067" lon="9.895295141935808"><ele>75.0</ele><time>2026-04-12T16:05:47.999Z</time></trkpt><trkpt lat="44.09260102462039" lon="9.89530268980849"><ele>75.0</ele><time>2026-04-12T16:05:48.999Z</time></trkpt><trkpt lat="44.09266580347095" lon="9.895327328567946"><ele>74.99999999999999</ele><time>2026-04-12T16:05:49.999Z</time></trkpt><trkpt lat="44.09273158085405" lon="9.89535049276169"><ele>75.0</ele><time>2026-04-12T16:05:50.999Z</time></trkpt><trkpt lat="44.092855593875306" lon="9.895343903742653"><ele>76.8</ele><time>2026-04-12T16:05:52.998Z</time></trkpt><trkpt lat="44.09297590344015" lon="9.895294993288259"><ele>78.6</ele><time>2026-04-12T16:05:54.998Z</time></trkpt><trkpt lat="44.09308249461229" lon="9.895226663162664"><ele>80.4</ele><time>2026-04-12T16:05:56.998Z</time></trkpt><trkpt lat="44.09313712971353" lon="9.895104278240455"><ele>82.2</ele><time>2026-04-12T16:05:58.998Z</time></trkpt><trkpt lat="44.09311650046616" lon="9.89496583214272"><ele>84.0</ele><time>2026-04-12T16:06:00.998Z</time></trkpt><trkpt lat="44.09303596276027" lon="9.894866507378765"><ele>84.0</ele><time>2026-04-12T16:06:02.998Z</time></trkpt><trkpt lat="44.09293815367477" lon="9.894798533037523"><ele>84.0</ele><time>2026-04-12T16:06:04.998Z</time></trkpt><trkpt lat="44.09285051983753" lon="9.894719111561418"><ele>84.0</ele><time>2026-04-12T16:06:07Z</time></trkpt><trkpt lat="44.09276775118194" lon="9.894646741105294"><ele>84.0</ele><time>2026-04-12T16:06:09Z</time></trkpt><trkpt lat="44.092684728398844" lon="9.894599445979086"><ele>84.0</ele><time>2026-04-12T16:06:11Z</time></trkpt><trkpt lat="44.09260172957248" lon="9.894581871057037"><ele>84.0</ele><time>2026-04-12T16:06:13Z</time></trkpt><trkpt lat="44.092528170793514" lon="9.894557923278462"><ele>84.0</ele><time>2026-04-12T16:06:15Z</time></trkpt><trkpt lat="44.092466595612784" lon="9.894534647069682"><ele>84.0</ele><time>2026-04-12T16:06:17Z</time></trkpt><trkpt lat="44.09239612977263" lon="9.894509603472278"><ele>84.0</ele><time>2026-04-12T16:06:19Z</time></trkpt><trkpt lat="44.09231768754873" lon="9.894482678860308"><ele>84.0</ele><time>2026-04-12T16:06:21Z</time></trkpt><trkpt lat="44.09223666789889" lon="9.894468932240725"><ele>84.0</ele><time>2026-04-12T16:06:23Z</time></trkpt><trkpt lat="44.09215403925664" lon="9.894455776191071"><ele>84.71428571428571</ele><time>2026-04-12T16:06:25Z</time></trkpt><trkpt lat="44.092077103867005" lon="9.894433540701643"><ele>85.42857142857143</ele><time>2026-04-12T16:06:27Z</time></trkpt><trkpt lat="44.09200226888563" lon="9.894411198928859"><ele>86.14285714285714</ele><time>2026-04-12T16:06:29Z</time></trkpt><trkpt lat="44.09192845734498" lon="9.894391861293185"><ele>86.85714285714286</ele><time>2026-04-12T16:06:31Z</time></trkpt><trkpt lat="44.09185635578983" lon="9.894367372574512"><ele>87.57142857142857</ele><time>2026-04-12T16:06:33Z</time></trkpt><trkpt lat="44.091790682456654" lon="9.894332649748343"><ele>88.28571428571428</ele><time>2026-04-12T16:06:35Z</time></trkpt><trkpt lat="44.09172408297911" lon="9.894286546801405"><ele>89.0</ele><time>2026-04-12T16:06:37Z</time></trkpt><trkpt lat="44.09165319854992" lon="9.894244459456965"><ele>86.66666666666667</ele><time>2026-04-12T16:06:39Z</time></trkpt><trkpt lat="44.09158259523244" lon="9.894215896856267"><ele>84.33333333333334</ele><time>2026-04-12T16:06:41Z</time></trkpt><trkpt lat="44.091509286936635" lon="9.89420057086581"><ele>82.0</ele><time>2026-04-12T16:06:42.999Z</time></trkpt><trkpt lat="44.091435853830156" lon="9.894181840837513"><ele>79.66666666666667</ele><time>2026-04-12T16:06:44.999Z</time></trkpt><trkpt lat="44.0913606978942" lon="9.894163796365817"><ele>77.33333333333333</ele><time>2026-04-12T16:06:46.999Z</time></trkpt><trkpt lat="44.0912870369563" lon="9.894128299676106"><ele>75.0</ele><time>2026-04-12T16:06:48.999Z</time></trkpt><trkpt lat="44.09122781770766" lon="9.894048513691217"><ele>75.0</ele><time>2026-04-12T16:06:50.999Z</time></trkpt><trkpt lat="44.09119678962622" lon="9.893947583626106"><ele>75.0</ele><time>2026-04-12T16:06:52.999Z</time></trkpt><trkpt lat="44.09118511959577" lon="9.893849666339491"><ele>75.0</ele><time>2026-04-12T16:06:54.999Z</time></trkpt><trkpt lat="44.091196552872574" lon="9.893739350153655"><ele>75.0</ele><time>2026-04-12T16:06:56.999Z</time></trkpt><trkpt lat="44.09121481732095" lon="9.89363604304368"><ele>75.0</ele><time>2026-04-12T16:06:58.999Z</time></trkpt><trkpt lat="44.09123466897732" lon="9.89353170857748"><ele>75.0</ele><time>2026-04-12T16:07:00.999Z</time></trkpt><trkpt lat="44.091257893930255" lon="9.893436675976107"><ele>76.16666666666667</ele><time>2026-04-12T16:07:02.999Z</time></trkpt><trkpt lat="44.09128055341515" lon="9.893340129199933"><ele>77.33333333333333</ele><time>2026-04-12T16:07:04.999Z</time></trkpt><trkpt lat="44.091301815481955" lon="9.893246804930916"><ele>78.5</ele><time>2026-04-12T16:07:06.999Z</time></trkpt><trkpt lat="44.09132616774388" lon="9.893155691062287"><ele>79.66666666666666</ele><time>2026-04-12T16:07:08.999Z</time></trkpt><trkpt lat="44.09136209182348" lon="9.893040626014452"><ele>80.83333333333333</ele><time>2026-04-12T16:07:11.999Z</time></trkpt><trkpt lat="44.09138531769857" lon="9.892954779505972"><ele>82.0</ele><time>2026-04-12T16:07:13.999Z</time></trkpt><trkpt lat="44.09141078228476" lon="9.89283760349303"><ele>82.0</ele><time>2026-04-12T16:07:16.999Z</time></trkpt><trkpt lat="44.09142374718814" lon="9.892744710574"><ele>82.0</ele><time>2026-04-12T16:07:18.999Z</time></trkpt><trkpt lat="44.09134990067677" lon="9.892615231053515"><ele>82.0</ele><time>2026-04-12T16:07:20.999Z</time></trkpt><trkpt lat="44.09126413182141" lon="9.892486877290215"><ele>82.0</ele><time>2026-04-12T16:07:22.999Z</time></trkpt><trkpt lat="44.091183759817866" lon="9.892347817776134"><ele>82.0</ele><time>2026-04-12T16:07:24.999Z</time></trkpt><trkpt lat="44.091140349575554" lon="9.892273666374193"><ele>82.57142857142857</ele><time>2026-04-12T16:07:25.999Z</time></trkpt><trkpt lat="44.0910982732865" lon="9.892198819324543"><ele>83.14285714285714</ele><time>2026-04-12T16:07:26.999Z</time></trkpt><trkpt lat="44.09106076998031" lon="9.892122311815575"><ele>83.71428571428572</ele><time>2026-04-12T16:07:27.999Z</time></trkpt><trkpt lat="44.091034047464746" lon="9.89203706065842"><ele>84.28571428571428</ele><time>2026-04-12T16:07:28.999Z</time></trkpt><trkpt lat="44.09100734579179" lon="9.891947658357063"><ele>84.85714285714286</ele><time>2026-04-12T16:07:29.999Z</time></trkpt><trkpt lat="44.09098648689804" lon="9.891851066857113"><ele>85.42857142857143</ele><time>2026-04-12T16:07:30.999Z</time></trkpt><trkpt lat="44.09096455566912" lon="9.89175386306917"><ele>86.0</ele><time>2026-04-12T16:07:31.999Z</time></trkpt><trkpt lat="44.09094349924488" lon="9.891654339683289"><ele>86.0</ele><time>2026-04-12T16:07:32.999Z</time></trkpt><trkpt lat="44.09091376374512" lon="9.891561169443138"><ele>86.0</ele><time>2026-04-12T16:07:33.999Z</time></trkpt><trkpt lat="44.09088555491802" lon="9.89146191730102"><ele>86.0</ele><time>2026-04-12T16:07:34.999Z</time></trkpt><trkpt lat="44.090842306226314" lon="9.89138357235126"><ele>86.0</ele><time>2026-04-12T16:07:35.999Z</time></trkpt><trkpt lat="44.09076253669936" lon="9.89129275258365"><ele>86.0</ele><time>2026-04-12T16:07:37.999Z</time></trkpt><trkpt lat="44.09067952609318" lon="9.8911748978353"><ele>86.0</ele><time>2026-04-12T16:07:39.999Z</time></trkpt><trkpt lat="44.090567423452754" lon="9.891099998331379"><ele>86.16666666666667</ele><time>2026-04-12T16:07:41.999Z</time></trkpt><trkpt lat="44.090455816109206" lon="9.891022563151052"><ele>86.33333333333334</ele><time>2026-04-12T16:07:43.999Z</time></trkpt><trkpt lat="44.09040923150353" lon="9.890957335085073"><ele>86.5</ele><time>2026-04-12T16:07:44.999Z</time></trkpt><trkpt lat="44.09036303471275" lon="9.890885866226965"><ele>86.66666666666667</ele><time>2026-04-12T16:07:45.999Z</time></trkpt><trkpt lat="44.09032647469209" lon="9.890803748940238"><ele>86.83333333333333</ele><time>2026-04-12T16:07:46.999Z</time></trkpt><trkpt lat="44.09029033625267" lon="9.89071854516473"><ele>87.0</ele><time>2026-04-12T16:07:47.999Z</time></trkpt><trkpt lat="44.090255228600725" lon="9.8906300746449"><ele>87.0</ele><time>2026-04-12T16:07:48.999Z</time></trkpt><trkpt lat="44.09021837194314" lon="9.890546899846193"><ele>87.0</ele><time>2026-04-12T16:07:49.999Z</time></trkpt><trkpt lat="44.090171870590666" lon="9.89047065121414"><ele>87.0</ele><time>2026-04-12T16:07:50.999Z</time></trkpt><trkpt lat="44.09013700149042" lon="9.890386617689803"><ele>87.0</ele><time>2026-04-12T16:07:51.999Z</time></trkpt><trkpt lat="44.09007507678835" lon="9.890342743390242"><ele>87.0</ele><time>2026-04-12T16:07:52.999Z</time></trkpt><trkpt lat="44.09001996547882" lon="9.890288290353512"><ele>87.0</ele><time>2026-04-12T16:07:53.999Z</time></trkpt><trkpt lat="44.08996037154504" lon="9.890248761495766"><ele>87.0</ele><time>2026-04-12T16:07:54.999Z</time></trkpt><trkpt lat="44.089859746215026" lon="9.890163490845682"><ele>84.0</ele><time>2026-04-12T16:07:56.999Z</time></trkpt><trkpt lat="44.08977063279938" lon="9.890090242495193"><ele>81.0</ele><time>2026-04-12T16:07:58.999Z</time></trkpt><trkpt lat="44.089707471374425" lon="9.890002796341882"><ele>78.0</ele><time>2026-04-12T16:08:00.999Z</time></trkpt><trkpt lat="44.089627522075475" lon="9.889952833773949"><ele>75.0</ele><time>2026-04-12T16:08:02.999Z</time></trkpt><trkpt lat="44.08956463727282" lon="9.889880661198783"><ele>72.0</ele><time>2026-04-12T16:08:04.999Z</time></trkpt><trkpt lat="44.08950386460455" lon="9.889824117491246"><ele>69.0</ele><time>2026-04-12T16:08:06.999Z</time></trkpt><trkpt lat="44.08943070124725" lon="9.889762272014579"><ele>69.0</ele><time>2026-04-12T16:08:08.999Z</time></trkpt><trkpt lat="44.08935523536676" lon="9.889704983464325"><ele>69.0</ele><time>2026-04-12T16:08:10.998Z</time></trkpt><trkpt lat="44.08929482927585" lon="9.889664730729992"><ele>69.0</ele><time>2026-04-12T16:08:13Z</time></trkpt><trkpt lat="44.0892212773226" lon="9.88962590715525"><ele>69.0</ele><time>2026-04-12T16:08:16Z</time></trkpt><trkpt lat="44.08915815001025" lon="9.889610916033318"><ele>69.0</ele><time>2026-04-12T16:08:19Z</time></trkpt><trkpt lat="44.08921236523233" lon="9.889674574741464"><ele>69.0</ele><time>2026-04-12T16:08:23Z</time></trkpt><trkpt lat="44.089282340594735" lon="9.88964131970794"><ele>69.0</ele><time>2026-04-12T16:08:26Z</time></trkpt><trkpt lat="44.089199433264106" lon="9.8896135797206"><ele>69.0</ele><time>2026-04-12T16:08:37Z</time></trkpt><trkpt lat="44.08913452106606" lon="9.889611900207438"><ele>69.0</ele><time>2026-04-12T16:08:40Z</time></trkpt><trkpt lat="44.08905263048593" lon="9.88960656590793"><ele>69.0</ele><time>2026-04-12T16:08:43Z</time></trkpt><trkpt lat="44.08898939665949" lon="9.889650163170229"><ele>69.0</ele><time>2026-04-12T16:08:46Z</time></trkpt><trkpt lat="44.08891094305583" lon="9.889682212268532"><ele>69.0</ele><time>2026-04-12T16:08:49Z</time></trkpt><trkpt lat="44.08884584246599" lon="9.889699754974009"><ele>69.0</ele><time>2026-04-12T16:08:51Z</time></trkpt><trkpt lat="44.08875830629039" lon="9.889721196844912"><ele>67.71428571428572</ele><time>2026-04-12T16:08:54Z</time></trkpt><trkpt lat="44.088694766923695" lon="9.889723986111658"><ele>66.42857142857143</ele><time>2026-04-12T16:08:56Z</time></trkpt><trkpt lat="44.0886254931601" lon="9.889738007604533"><ele>65.14285714285714</ele><time>2026-04-12T16:08:57.999Z</time></trkpt><trkpt lat="44.08856223543346" lon="9.889739148222588"><ele>63.85714285714286</ele><time>2026-04-12T16:08:59.999Z</time></trkpt><trkpt lat="44.08849704115421" lon="9.889743411682772"><ele>62.57142857142857</ele><time>2026-04-12T16:09:01.999Z</time></trkpt><trkpt lat="44.088403498950555" lon="9.889747978366898"><ele>61.28571428571429</ele><time>2026-04-12T16:09:04.999Z</time></trkpt><trkpt lat="44.08834108843537" lon="9.8897296466555"><ele>60.0</ele><time>2026-04-12T16:09:06.999Z</time></trkpt><trkpt lat="44.08827703127953" lon="9.889696503340904"><ele>59.285714285714285</ele><time>2026-04-12T16:09:08.999Z</time></trkpt><trkpt lat="44.0882007859591" lon="9.889636599804728"><ele>58.57142857142857</ele><time>2026-04-12T16:09:10.999Z</time></trkpt><trkpt lat="44.088155814455426" lon="9.889561003447033"><ele>57.857142857142854</ele><time>2026-04-12T16:09:12.999Z</time></trkpt><trkpt lat="44.08813489679648" lon="9.889462676119082"><ele>57.14285714285714</ele><time>2026-04-12T16:09:14.999Z</time></trkpt><trkpt lat="44.088120881143006" lon="9.889363559125886"><ele>56.42857142857143</ele><time>2026-04-12T16:09:16.999Z</time></trkpt><trkpt lat="44.088105848743176" lon="9.889264891571983"><ele>55.71428571428571</ele><time>2026-04-12T16:09:18.999Z</time></trkpt><trkpt lat="44.088092886284485" lon="9.889168314722044"><ele>55.0</ele><time>2026-04-12T16:09:20.999Z</time></trkpt><trkpt lat="44.08806755457467" lon="9.889071250668382"><ele>57.166666666666664</ele><time>2026-04-12T16:09:22.999Z</time></trkpt><trkpt lat="44.088029216830435" lon="9.88898525485048"><ele>59.33333333333333</ele><time>2026-04-12T16:09:24.999Z</time></trkpt><trkpt lat="44.08798901655817" lon="9.888911228135628"><ele>61.5</ele><time>2026-04-12T16:09:26.999Z</time></trkpt><trkpt lat="44.08791353352308" lon="9.888838979549233"><ele>63.66666666666667</ele><time>2026-04-12T16:09:29.999Z</time></trkpt><trkpt lat="44.08783200338219" lon="9.888803175238225"><ele>65.83333333333334</ele><time>2026-04-12T16:09:32.999Z</time></trkpt><trkpt lat="44.08776402172491" lon="9.888789755734367"><ele>68.0</ele><time>2026-04-12T16:09:34.999Z</time></trkpt><trkpt lat="44.08769900305962" lon="9.888805815236976"><ele>67.99999999999999</ele><time>2026-04-12T16:09:36.999Z</time></trkpt><trkpt lat="44.087628559774224" lon="9.888817526242683"><ele>68.0</ele><time>2026-04-12T16:09:38.999Z</time></trkpt><trkpt lat="44.0875603636569" lon="9.888852599794625"><ele>68.0</ele><time>2026-04-12T16:09:40.999Z</time></trkpt><trkpt lat="44.08748778499767" lon="9.888846670441614"><ele>68.0</ele><time>2026-04-12T16:09:42.999Z</time></trkpt><trkpt lat="44.08742026389146" lon="9.888873422416372"><ele>68.0</ele><time>2026-04-12T16:09:44.999Z</time></trkpt><trkpt lat="44.08735621616713" lon="9.888886340485543"><ele>67.99999999999999</ele><time>2026-04-12T16:09:46.999Z</time></trkpt><trkpt lat="44.08726990930775" lon="9.88885066731736"><ele>68.0</ele><time>2026-04-12T16:09:49.999Z</time></trkpt><trkpt lat="44.08722127379564" lon="9.888962322720387"><ele>68.71428571428571</ele><time>2026-04-12T16:09:52.999Z</time></trkpt><trkpt lat="44.087182753001706" lon="9.889054440188522"><ele>69.42857142857143</ele><time>2026-04-12T16:09:54.999Z</time></trkpt><trkpt lat="44.087144408120835" lon="9.889131643196052"><ele>70.14285714285714</ele><time>2026-04-12T16:09:56.999Z</time></trkpt><trkpt lat="44.08708322677372" lon="9.889173016038978"><ele>70.85714285714286</ele><time>2026-04-12T16:09:58.999Z</time></trkpt><trkpt lat="44.08701608816671" lon="9.889209796222376"><ele>71.57142857142857</ele><time>2026-04-12T16:10:00.999Z</time></trkpt><trkpt lat="44.08694564339557" lon="9.88922945322633"><ele>72.28571428571428</ele><time>2026-04-12T16:10:02.999Z</time></trkpt><trkpt lat="44.08688095535716" lon="9.889241644480999"><ele>73.0</ele><time>2026-04-12T16:10:04.999Z</time></trkpt><trkpt lat="44.086787916831256" lon="9.889266714330704"><ele>73.0</ele><time>2026-04-12T16:10:07.999Z</time></trkpt><trkpt lat="44.086700379646516" lon="9.88930102432783"><ele>73.0</ele><time>2026-04-12T16:10:10.999Z</time></trkpt><trkpt lat="44.08663012366565" lon="9.889368611908536"><ele>73.0</ele><time>2026-04-12T16:10:13.999Z</time></trkpt><trkpt lat="44.086590568536266" lon="9.889441543023892"><ele>73.0</ele><time>2026-04-12T16:10:15.999Z</time></trkpt><trkpt lat="44.08654085674647" lon="9.889539814742802"><ele>73.0</ele><time>2026-04-12T16:10:19Z</time></trkpt><trkpt lat="44.0864778678224" lon="9.889622237857678"><ele>73.0</ele><time>2026-04-12T16:10:22Z</time></trkpt><trkpt lat="44.08643420685413" lon="9.889720154192249"><ele>71.83333333333333</ele><time>2026-04-12T16:10:24Z</time></trkpt><trkpt lat="44.08639821562133" lon="9.889805280761113"><ele>70.66666666666666</ele><time>2026-04-12T16:10:26Z</time></trkpt><trkpt lat="44.086342201000214" lon="9.889900546541075"><ele>69.5</ele><time>2026-04-12T16:10:29Z</time></trkpt><trkpt lat="44.08630240708962" lon="9.889968905086251"><ele>68.33333333333333</ele><time>2026-04-12T16:10:31Z</time></trkpt><trkpt lat="44.086238204424106" lon="9.890051942083442"><ele>67.16666666666667</ele><time>2026-04-12T16:10:34Z</time></trkpt><trkpt lat="44.086168505803684" lon="9.890129617656864"><ele>66.0</ele><time>2026-04-12T16:10:37Z</time></trkpt><trkpt lat="44.08611941119948" lon="9.890191945131676"><ele>66.0</ele><time>2026-04-12T16:10:39Z</time></trkpt><trkpt lat="44.08604835739183" lon="9.890214063202489"><ele>66.0</ele><time>2026-04-12T16:10:41Z</time></trkpt><trkpt lat="44.08597791860934" lon="9.890223936899096"><ele>66.0</ele><time>2026-04-12T16:10:43Z</time></trkpt><trkpt lat="44.08590765249068" lon="9.890206121595577"><ele>66.0</ele><time>2026-04-12T16:10:45Z</time></trkpt><trkpt lat="44.08581724954551" lon="9.890187458059227"><ele>66.0</ele><time>2026-04-12T16:10:48Z</time></trkpt><trkpt lat="44.085751510205974" lon="9.890159447765223"><ele>66.0</ele><time>2026-04-12T16:10:50Z</time></trkpt><trkpt lat="44.08568619706656" lon="9.890123132867682"><ele>66.0</ele><time>2026-04-12T16:10:52Z</time></trkpt><trkpt lat="44.085619891886004" lon="9.890099106195787"><ele>67.42857142857143</ele><time>2026-04-12T16:10:54Z</time></trkpt><trkpt lat="44.08555417901085" lon="9.890084638328526"><ele>68.85714285714286</ele><time>2026-04-12T16:10:56Z</time></trkpt><trkpt lat="44.08548983919342" lon="9.890079266866216"><ele>70.28571428571428</ele><time>2026-04-12T16:10:58Z</time></trkpt><trkpt lat="44.08542369296406" lon="9.890083121163213"><ele>71.71428571428572</ele><time>2026-04-12T16:11:00Z</time></trkpt><trkpt lat="44.085355925141805" lon="9.890073898162072"><ele>73.14285714285715</ele><time>2026-04-12T16:11:02Z</time></trkpt><trkpt lat="44.08528738017461" lon="9.890127670457135"><ele>74.57142857142857</ele><time>2026-04-12T16:11:04Z</time></trkpt><trkpt lat="44.085222784928774" lon="9.890146182328346"><ele>76.0</ele><time>2026-04-12T16:11:05.999Z</time></trkpt><trkpt lat="44.08516359806734" lon="9.890180793208096"><ele>76.0</ele><time>2026-04-12T16:11:07.999Z</time></trkpt><trkpt lat="44.08508705072331" lon="9.890251984139468"><ele>76.0</ele><time>2026-04-12T16:11:10.999Z</time></trkpt><trkpt lat="44.0850096941018" lon="9.890325158311427"><ele>76.0</ele><time>2026-04-12T16:11:13.999Z</time></trkpt><trkpt lat="44.084953597144676" lon="9.89038232049075"><ele>76.0</ele><time>2026-04-12T16:11:15.999Z</time></trkpt><trkpt lat="44.08490062416059" lon="9.890450076399032"><ele>76.0</ele><time>2026-04-12T16:11:17.999Z</time></trkpt><trkpt lat="44.084844404902945" lon="9.890505780766324"><ele>76.0</ele><time>2026-04-12T16:11:19.999Z</time></trkpt><trkpt lat="44.08479291541365" lon="9.890563920235474"><ele>77.57142857142857</ele><time>2026-04-12T16:11:21.999Z</time></trkpt><trkpt lat="44.084740402304774" lon="9.890619225606786"><ele>79.14285714285715</ele><time>2026-04-12T16:11:23.999Z</time></trkpt><trkpt lat="44.084689342415636" lon="9.890681392764845"><ele>80.71428571428572</ele><time>2026-04-12T16:11:25.999Z</time></trkpt><trkpt lat="44.08463172880624" lon="9.890733342997569"><ele>82.28571428571428</ele><time>2026-04-12T16:11:27.999Z</time></trkpt><trkpt lat="44.08456620801281" lon="9.890782852594361"><ele>83.85714285714286</ele><time>2026-04-12T16:11:29.999Z</time></trkpt><trkpt lat="44.0845005109817" lon="9.890818317124303"><ele>85.42857142857143</ele><time>2026-04-12T16:11:31.999Z</time></trkpt><trkpt lat="44.08442872149673" lon="9.890840570937959"><ele>87.0</ele><time>2026-04-12T16:11:33.999Z</time></trkpt><trkpt lat="44.08436303749351" lon="9.890850905623113"><ele>87.0</ele><time>2026-04-12T16:11:35.999Z</time></trkpt><trkpt lat="44.08427650755811" lon="9.89084834374598"><ele>87.0</ele><time>2026-04-12T16:11:38.999Z</time></trkpt><trkpt lat="44.0841976095161" lon="9.89080067588093"><ele>87.0</ele><time>2026-04-12T16:11:41.999Z</time></trkpt></trkseg></trk></gpx>